createdAt,value
2023-06-30T00:09:57.586Z,95.25
2023-06-30T00:20:07.042Z,95.42
2023-06-30T00:30:14.052Z,95.17
2023-06-30T00:40:18.439Z,95.86
2023-06-30T00:50:21.816Z,96.10
2023-06-30T01:00:29.475Z,96.41
2023-06-30T01:10:36.920Z,96.34
2023-06-30T01:20:42.546Z,96.18
2023-06-30T01:31:12.362Z,95.54
2023-06-30T01:41:20.328Z,95.43
2023-06-30T01:51:23.234Z,95.03
2023-06-30T02:01:27.751Z,94.85
2023-06-30T02:11:30.736Z,94.90
2023-06-30T02:21:38.026Z,95.25
2023-06-30T02:31:44.016Z,95.41
2023-06-30T02:41:48.400Z,95.46
2023-06-30T02:51:51.153Z,95.22
2023-06-30T03:01:56.077Z,95.75
2023-06-30T03:11:59.287Z,95.57
2023-06-30T03:22:03.517Z,95.74
2023-06-30T03:32:06.910Z,95.79
2023-06-30T03:42:11.322Z,95.52
2023-06-30T03:52:14.281Z,95.98
2023-06-30T04:02:18.745Z,95.85
2023-06-30T04:12:21.837Z,95.72
2023-06-30T04:22:26.142Z,95.59
2023-06-30T04:32:29.118Z,95.87
2023-06-30T04:42:33.286Z,96.08
2023-06-30T04:52:35.960Z,96.19
2023-06-30T05:02:39.993Z,95.62
2023-06-30T05:12:42.814Z,95.61
2023-06-30T05:22:46.849Z,95.30
2023-06-30T05:32:49.550Z,95.22
2023-06-30T05:42:53.626Z,94.88
2023-06-30T05:52:56.315Z,94.27
2023-06-30T06:03:02.411Z,93.19
2023-06-30T06:13:05.557Z,92.86
2023-06-30T06:23:09.659Z,92.30
2023-06-30T06:33:12.337Z,91.47
2023-06-30T06:43:16.579Z,90.15
2023-06-30T06:53:21.501Z,89.53
2023-06-30T07:03:26.044Z,88.61
2023-06-30T07:13:29.071Z,87.03
2023-06-30T07:23:33.236Z,83.54
2023-06-30T07:33:36.041Z,81.21
2023-06-30T07:43:40.065Z,79.96
2023-06-30T07:53:42.792Z,71.26
2023-06-30T08:03:47.419Z,70.85
2023-06-30T08:13:50.252Z,69.11
2023-06-30T08:23:54.318Z,66.95
2023-06-30T08:33:57.141Z,67.65
2023-06-30T08:44:02.774Z,63.08
2023-06-30T08:54:06.501Z,61.47
2023-06-30T09:04:12.146Z,64.98
2023-06-30T09:14:16.406Z,61.55
2023-06-30T09:24:20.752Z,57.13
2023-06-30T09:34:24.813Z,56.21
2023-06-30T09:44:28.965Z,56.81
2023-06-30T10:04:40.830Z,58.48
2023-06-30T10:14:46.139Z,59.70
2023-06-30T10:24:51.541Z,56.72
2023-06-30T10:34:55.268Z,54.05
2023-06-30T10:45:01.638Z,56.26
2023-06-30T10:55:07.086Z,51.64
2023-06-30T11:05:28.077Z,50.49
2023-06-30T11:15:54.256Z,53.22
2023-06-30T11:26:00.052Z,49.45
2023-06-30T11:36:02.731Z,45.90
2023-06-30T11:46:24.721Z,36.47
2023-06-30T11:56:30.588Z,30.26
2023-06-30T12:06:38.995Z,25.49
2023-06-30T12:16:43.687Z,29.49
2023-06-30T12:26:49.671Z,40.87
2023-06-30T12:36:57.396Z,36.61
2023-06-30T12:47:02.778Z,29.61
2023-06-30T12:57:05.764Z,35.46
2023-06-30T13:07:09.905Z,43.15
2023-06-30T13:17:12.856Z,40.75
2023-06-30T13:27:17.004Z,39.10
2023-06-30T13:37:19.726Z,43.27
2023-06-30T13:47:23.789Z,44.85
2023-06-30T13:57:26.538Z,43.51
2023-06-30T14:07:31.281Z,42.07
2023-06-30T14:17:34.473Z,44.11
2023-06-30T14:27:42.620Z,45.46
2023-06-30T14:37:46.383Z,42.68
2023-06-30T14:47:52.053Z,42.69
2023-06-30T14:57:54.907Z,41.49
2023-06-30T15:07:59.645Z,41.66
2023-06-30T15:18:03.209Z,37.24
2023-06-30T15:28:07.547Z,38.63
2023-06-30T15:38:10.319Z,39.33
2023-06-30T15:48:16.315Z,38.98
2023-06-30T15:58:20.125Z,40.20
2023-06-30T16:08:24.145Z,40.49
2023-06-30T16:18:26.938Z,40.44
2023-06-30T16:28:31.082Z,40.88
2023-06-30T16:38:33.822Z,39.82
2023-06-30T16:48:38.545Z,39.63
2023-06-30T16:58:41.409Z,40.89
2023-06-30T17:08:45.693Z,41.07
2023-06-30T17:18:48.659Z,41.87
2023-06-30T17:28:52.922Z,43.42
2023-06-30T17:38:55.751Z,43.87
2023-06-30T17:49:23.326Z,44.53
2023-06-30T17:59:27.577Z,44.75
2023-06-30T18:09:32.829Z,45.31
2023-06-30T18:19:35.471Z,46.45
2023-06-30T18:29:40.426Z,47.05
2023-06-30T18:39:43.150Z,47.73
2023-06-30T18:49:47.398Z,49.23
2023-06-30T18:59:50.104Z,49.56
2023-06-30T19:09:54.151Z,50.30
2023-06-30T19:19:57.018Z,52.65
2023-06-30T19:30:01.320Z,57.10
2023-06-30T19:40:04.410Z,58.15
2023-06-30T19:50:08.897Z,58.58
2023-06-30T20:00:12.652Z,59.38
2023-06-30T20:10:17.057Z,61.05
2023-06-30T20:20:19.808Z,61.76
2023-06-30T20:30:23.922Z,61.85
2023-06-30T20:40:26.609Z,62.20
2023-06-30T20:50:30.616Z,62.89
2023-06-30T21:00:33.270Z,63.74
2023-06-30T21:10:37.329Z,63.17
2023-06-30T21:20:39.999Z,65.39
2023-06-30T21:30:44.291Z,69.29
2023-06-30T21:40:47.459Z,71.18
2023-06-30T21:50:52.405Z,71.50
2023-06-30T22:00:58.519Z,72.18
2023-06-30T22:11:07.045Z,74.21
2023-06-30T22:21:11.043Z,74.63
2023-06-30T22:31:15.605Z,75.11
2023-06-30T22:41:18.557Z,76.53
2023-06-30T22:51:25.313Z,76.05
2023-06-30T23:01:28.658Z,76.25
2023-06-30T23:22:06.843Z,78.02
2023-06-30T23:43:23.766Z,74.58
2023-06-30T23:53:28.679Z,73.53
